Vayland, South Dakota
Current Conditions -  °F | °C
As of 5:55 PM on Thursday 27 Nov 2014 (Local Time) from KHON Reporting Station
Overcast Overcast  
Wind Chill: -1°   Ceiling: 8500
Heat Index: 14°   Visibility: 10mi
Dew Point:   Wind: 15mph
Humidity: 67%   Direction: 130°SE
Pressure: 30.14"   Gusts: 28mph
Location:  44.3714°N, 98.681°W
Report Text: KHON 272355Z AUTO 13013G24KT 10SM OVC085 M10/M15 A3014 RMK AO2 SLP237 T11001150 11100 21133 58034
Loading
Personal Weather Stations






























Interactive Weather Map New forecast layout! Learn more

10-Day Weather Forecast

Advertisements
Track Severe Weather on mobile